Time;durP1;ratioP1;P1;durP2;ratioP2;P2;SDS_P1;SDS_P2;PMS_P1;PMS_P2;Temp;Humidity;BMP_temperature;BMP_pressure;BME280_temperature;BME280_humidity;BME280_pressure;Samples;Min_cycle;Max_cycle;Signal;HPM_P1;HPM_P2
2022/03/14 00:01:24;;;;;;;15.48;12.02;;;8.70;81.30;;;;;;5115522;27;20035;-72
2022/03/14 00:03:53;;;;;;;18.30;11.80;;;8.90;82.70;;;;;;5115915;27;20035;-72
2022/03/14 00:06:20;;;;;;;20.65;11.90;;;8.80;82.40;;;;;;5099396;27;20047;-71
2022/03/14 00:08:46;;;;;;;15.70;11.50;;;8.80;83.00;;;;;;5132818;27;20038;-71
2022/03/14 00:11:14;;;;;;;16.10;10.30;;;8.90;83.90;;;;;;5115285;27;20046;-71
2022/03/14 00:13:43;;;;;;;14.50;10.55;;;9.00;84.90;;;;;;5115127;27;20070;-71
2022/03/14 00:16:08;;;;;;;15.32;12.05;;;9.00;84.80;;;;;;5115143;27;20055;-71
2022/03/14 00:18:35;;;;;;;14.65;10.50;;;9.10;85.90;;;;;;5132166;27;20046;-72
2022/03/14 00:21:01;;;;;;;16.85;11.70;;;9.20;86.90;;;;;;5115511;27;20039;-72
2022/03/14 00:23:27;;;;;;;17.42;11.57;;;9.20;87.30;;;;;;5115036;27;20118;-72
2022/03/14 00:25:54;;;;;;;14.48;10.27;;;9.30;88.60;;;;;;5115108;27;20046;-72
2022/03/14 00:28:20;;;;;;;14.50;10.25;;;9.40;89.50;;;;;;5115311;27;20035;-72
2022/03/14 00:30:46;;;;;;;14.23;10.80;;;9.60;90.00;;;;;;5115239;27;20184;-72
2022/03/14 00:33:12;;;;;;;13.35;9.75;;;9.90;90.40;;;;;;5097838;27;20046;-72
2022/03/14 00:35:39;;;;;;;12.60;8.75;;;9.50;90.50;;;;;;5131833;27;20043;-70
2022/03/14 00:38:05;;;;;;;12.35;8.30;;;9.70;90.90;;;;;;5115095;27;20035;-72
2022/03/14 00:40:31;;;;;;;11.82;8.10;;;9.60;91.40;;;;;;5132137;27;20455;-71
2022/03/14 00:42:57;;;;;;;10.82;7.20;;;9.60;91.90;;;;;;5132078;27;20138;-71
2022/03/14 00:45:24;;;;;;;10.18;7.50;;;9.70;93.10;;;;;;5114246;27;20038;-71
2022/03/14 00:47:50;;;;;;;9.68;7.00;;;9.70;93.30;;;;;;5131871;27;20092;-73
2022/03/14 00:50:16;;;;;;;10.65;7.32;;;9.70;93.50;;;;;;5131733;27;20424;-71
2022/03/14 00:52:42;;;;;;;7.50;5.90;;;9.70;94.40;;;;;;5131679;27;20102;-71
2022/03/14 00:55:08;;;;;;;7.50;5.63;;;9.80;94.60;;;;;;5114527;27;20095;-71
2022/03/14 00:57:34;;;;;;;7.35;5.60;;;9.90;95.80;;;;;;5131727;27;20125;-72
2022/03/14 00:59:59;;;;;;;8.32;5.72;;;9.90;95.40;;;;;;5114809;27;20101;-71
2022/03/14 01:02:25;;;;;;;8.68;5.38;;;10.00;95.70;;;;;;5097827;27;20122;-72
2022/03/14 01:04:51;;;;;;;7.47;5.13;;;10.00;95.90;;;;;;5131835;27;20054;-72
2022/03/14 01:07:17;;;;;;;9.82;5.45;;;10.00;95.90;;;;;;5131513;27;20549;-72
2022/03/14 01:09:42;;;;;;;9.48;6.00;;;10.00;96.10;;;;;;5131596;28;20050;-71
2022/03/14 01:12:08;;;;;;;8.32;5.38;;;10.10;96.20;;;;;;5131442;27;20054;-72
2022/03/14 01:14:35;;;;;;;8.82;5.93;;;10.00;96.30;;;;;;5097856;27;20072;-72
2022/03/14 01:17:00;;;;;;;8.10;5.70;;;10.00;96.50;;;;;;5135268;27;20420;-72
2022/03/14 01:19:26;;;;;;;7.55;5.70;;;10.00;96.20;;;;;;5118006;27;20043;-72
2022/03/14 01:21:52;;;;;;;6.45;5.10;;;10.20;96.60;;;;;;5117630;27;20039;-72
2022/03/14 01:24:18;;;;;;;8.05;5.53;;;10.30;96.90;;;;;;5135127;27;20078;-72
2022/03/14 01:26:44;;;;;;;6.32;4.63;;;10.00;96.90;;;;;;5135104;27;20038;-71
2022/03/14 01:29:10;;;;;;;6.82;4.68;;;10.40;97.70;;;;;;5135249;27;20041;-71
2022/03/14 01:31:37;;;;;;;6.82;4.85;;;10.20;97.60;;;;;;5135037;27;20481;-71
2022/03/14 01:34:03;;;;;;;6.15;4.80;;;10.10;97.80;;;;;;5117707;27;20034;-71
2022/03/14 01:36:29;;;;;;;6.60;5.13;;;10.00;97.80;;;;;;5117200;27;20078;-70
2022/03/14 01:38:55;;;;;;;7.47;5.43;;;10.00;97.80;;;;;;5117509;27;20070;-71
2022/03/14 01:41:22;;;;;;;6.20;4.72;;;9.90;97.80;;;;;;5117484;27;20164;-72
2022/03/14 01:43:49;;;;;;;7.53;5.15;;;9.80;98.10;;;;;;5117702;27;20051;-71
2022/03/14 01:46:16;;;;;;;5.97;4.80;;;10.00;98.20;;;;;;5134882;27;20493;-72
2022/03/14 01:48:43;;;;;;;6.88;4.85;;;10.00;98.40;;;;;;5135164;27;20045;-71
2022/03/14 01:51:09;;;;;;;6.88;4.53;;;9.90;98.40;;;;;;5134666;27;20394;-72
2022/03/14 01:53:35;;;;;;;8.40;5.30;;;9.90;98.20;;;;;;5134695;27;20041;-72
2022/03/14 01:56:02;;;;;;;6.97;5.00;;;9.90;98.10;;;;;;5117924;27;20039;-71
2022/03/14 01:58:28;;;;;;;7.32;5.40;;;9.90;98.30;;;;;;5138341;27;20121;-71
2022/03/14 02:00:54;;;;;;;7.75;4.75;;;9.70;98.30;;;;;;5138377;27;20533;-71
2022/03/14 02:03:20;;;;;;;7.30;5.03;;;9.80;98.50;;;;;;5138364;27;20076;-71
2022/03/14 02:05:48;;;;;;;7.60;4.85;;;9.80;98.80;;;;;;5138304;27;20042;-72
2022/03/14 02:08:15;;;;;;;7.45;4.82;;;9.80;99.10;;;;;;5138136;27;20163;-71
2022/03/14 02:10:40;;;;;;;7.68;4.93;;;9.80;99.30;;;;;;5121119;27;20035;-71
2022/03/14 02:13:07;;;;;;;6.68;5.10;;;9.70;99.30;;;;;;5121170;27;20035;-71
2022/03/14 02:15:33;;;;;;;7.88;5.20;;;9.80;99.10;;;;;;5137820;27;20054;-71
2022/03/14 02:18:00;;;;;;;5.97;4.68;;;9.80;99.20;;;;;;5121364;27;20053;-71
2022/03/14 02:20:26;;;;;;;7.43;4.70;;;9.70;99.30;;;;;;5138041;27;20093;-71
2022/03/14 02:22:52;;;;;;;6.80;4.85;;;9.70;99.70;;;;;;5120958;27;20075;-71
2022/03/14 02:25:18;;;;;;;5.90;4.22;;;9.70;99.80;;;;;;5137963;27;20042;-72
2022/03/14 02:27:43;;;;;;;6.30;4.63;;;9.70;99.90;;;;;;5138040;27;20255;-72
2022/03/14 02:30:10;;;;;;;5.68;4.32;;;9.60;99.90;;;;;;5137831;27;20042;-72
2022/03/14 02:32:41;;;;;;;6.00;4.20;;;9.70;99.90;;;;;;5120777;27;20482;-72
2022/03/14 02:35:08;;;;;;;5.88;4.00;;;9.90;99.90;;;;;;5121435;27;20035;-72
2022/03/14 02:37:34;;;;;;;5.75;4.03;;;9.70;99.90;;;;;;5137999;27;20046;-71
2022/03/14 02:40:00;;;;;;;5.70;4.32;;;9.80;99.90;;;;;;5137675;27;20472;-72
2022/03/14 02:42:26;;;;;;;9.18;4.40;;;9.70;99.90;;;;;;5138025;27;20486;-72
2022/03/14 02:44:51;;;;;;;5.82;3.90;;;9.70;99.90;;;;;;5120483;27;20049;-71
2022/03/14 02:47:17;;;;;;;5.97;4.15;;;9.90;99.90;;;;;;5137682;27;20043;-71
2022/03/14 02:49:43;;;;;;;4.95;3.47;;;9.80;99.90;;;;;;5137669;27;20042;-71
2022/03/14 02:52:09;;;;;;;4.50;3.60;;;9.80;99.90;;;;;;5120233;27;20082;-71
2022/03/14 02:54:35;;;;;;;4.65;3.78;;;9.80;99.90;;;;;;5120463;27;20077;-71
2022/03/14 02:57:01;;;;;;;5.65;3.83;;;9.80;99.90;;;;;;5137748;27;20042;-71
2022/03/14 02:59:27;;;;;;;5.13;4.07;;;9.70;99.90;;;;;;5120200;27;20090;-72
2022/03/14 03:01:53;;;;;;;5.78;4.05;;;9.70;99.90;;;;;;5120258;27;20129;-69
2022/03/14 03:04:18;;;;;;;4.70;3.72;;;9.90;99.90;;;;;;5137509;27;20035;-69
2022/03/14 03:06:45;;;;;;;5.28;4.15;;;9.70;99.90;;;;;;5136689;27;20053;-69
2022/03/14 03:09:11;;;;;;;5.07;3.42;;;9.60;99.90;;;;;;5137458;27;20175;-69
2022/03/14 03:11:37;;;;;;;5.93;3.75;;;9.50;99.90;;;;;;5137055;27;20112;-69
2022/03/14 03:14:03;;;;;;;6.75;4.22;;;9.50;99.90;;;;;;5120159;27;20043;-70
2022/03/14 03:16:31;;;;;;;6.88;4.10;;;9.50;99.90;;;;;;5136755;27;20047;-69
2022/03/14 03:18:57;;;;;;;7.03;3.97;;;9.50;99.90;;;;;;5120395;27;20408;-69
2022/03/14 03:21:23;;;;;;;4.63;3.50;;;9.60;99.90;;;;;;5136944;27;20118;-69
2022/03/14 03:23:49;;;;;;;5.22;3.70;;;9.50;99.90;;;;;;5136887;27;20074;-70
2022/03/14 03:26:15;;;;;;;7.28;3.80;;;9.50;99.90;;;;;;5136838;27;20107;-69
2022/03/14 03:28:42;;;;;;;6.72;3.80;;;9.40;99.90;;;;;;5136856;27;20067;-69
2022/03/14 03:31:13;;;;;;;4.80;3.75;;;9.40;99.90;;;;;;5136489;27;20115;-69
2022/03/14 03:33:39;;;;;;;4.63;3.45;;;9.40;99.90;;;;;;5136564;27;20047;-69
2022/03/14 03:36:07;;;;;;;5.03;3.60;;;9.40;99.90;;;;;;5119487;27;20095;-69
2022/03/14 03:38:33;;;;;;;5.18;3.40;;;9.40;99.90;;;;;;5136517;27;20069;-68
2022/03/14 03:40:59;;;;;;;4.55;3.65;;;9.60;99.90;;;;;;5154994;27;20083;-69
2022/03/14 03:43:25;;;;;;;5.32;3.65;;;9.40;99.90;;;;;;5136180;27;20442;-69
2022/03/14 03:45:51;;;;;;;7.32;3.88;;;9.30;99.90;;;;;;5154970;27;20118;-68
2022/03/14 03:48:17;;;;;;;6.15;4.07;;;8.90;99.90;;;;;;5154886;27;20087;-68
2022/03/14 03:50:44;;;;;;;6.05;4.13;;;9.30;99.90;;;;;;5119189;27;20027;-69
2022/03/14 03:53:09;;;;;;;5.28;3.97;;;9.20;99.90;;;;;;5154886;27;20034;-69
2022/03/14 03:55:35;;;;;;;5.40;4.47;;;9.20;99.90;;;;;;5136162;27;20130;-69
2022/03/14 03:58:01;;;;;;;5.90;4.00;;;9.20;99.90;;;;;;5155097;27;20031;-68
2022/03/14 04:00:27;;;;;;;6.38;4.38;;;9.20;99.90;;;;;;5154672;27;20042;-69
2022/03/14 04:02:53;;;;;;;5.45;4.13;;;9.10;99.90;;;;;;5136163;27;20031;-70
2022/03/14 04:05:20;;;;;;;5.90;4.55;;;9.10;99.90;;;;;;5119175;27;20399;-70
2022/03/14 04:07:46;;;;;;;6.78;4.35;;;9.10;99.90;;;;;;5136154;27;20062;-68
2022/03/14 04:10:12;;;;;;;6.50;4.88;;;9.10;99.90;;;;;;5135887;27;20042;-69
2022/03/14 04:12:39;;;;;;;7.82;5.05;;;9.10;99.90;;;;;;5135813;27;20043;-68
2022/03/14 04:15:09;;;;;;;6.00;4.32;;;9.10;99.90;;;;;;5118224;27;20054;-68
2022/03/14 04:17:42;;;;;;;5.78;4.28;;;9.00;99.90;;;;;;5102017;27;20087;-69
2022/03/14 04:20:11;;;;;;;6.95;4.90;;;9.10;99.90;;;;;;5135381;27;20095;-68
2022/03/14 04:22:40;;;;;;;5.97;4.50;;;9.00;99.90;;;;;;5135710;27;20041;-69
2022/03/14 04:25:07;;;;;;;5.93;4.07;;;9.10;99.90;;;;;;5135537;27;20083;-69
2022/03/14 04:27:33;;;;;;;5.85;4.03;;;9.00;99.90;;;;;;5135559;27;20091;-69
2022/03/14 04:29:59;;;;;;;4.72;3.50;;;9.00;99.90;;;;;;5135510;27;20039;-70
2022/03/14 04:32:26;;;;;;;6.03;3.80;;;9.00;99.90;;;;;;5135528;27;20070;-70
2022/03/14 04:34:52;;;;;;;6.00;3.35;;;9.10;99.90;;;;;;5101617;27;20046;-69
2022/03/14 04:37:18;;;;;;;4.07;3.17;;;9.10;99.90;;;;;;5135737;27;20050;-69
2022/03/14 04:39:45;;;;;;;4.30;3.30;;;9.40;99.90;;;;;;5118423;27;20047;-69
2022/03/14 04:42:10;;;;;;;4.40;3.30;;;9.30;99.90;;;;;;5118489;27;20103;-69
2022/03/14 04:44:36;;;;;;;3.85;2.92;;;9.10;99.90;;;;;;5135156;27;20038;-69
2022/03/14 04:47:03;;;;;;;4.15;3.00;;;9.20;99.90;;;;;;5118235;27;20062;-69
2022/03/14 04:49:29;;;;;;;4.53;3.05;;;9.20;99.90;;;;;;5135304;27;20095;-69
2022/03/14 04:51:55;;;;;;;5.22;2.90;;;9.20;99.90;;;;;;5135189;27;20408;-69
2022/03/14 04:54:22;;;;;;;3.92;2.83;;;9.30;99.90;;;;;;5135335;27;20389;-69
2022/03/14 04:56:48;;;;;;;3.90;2.85;;;9.20;99.90;;;;;;5135333;27;20041;-69
2022/03/14 04:59:14;;;;;;;3.22;2.55;;;9.30;99.90;;;;;;5134923;27;20062;-69
2022/03/14 05:01:39;;;;;;;4.13;2.95;;;9.20;99.90;;;;;;5135086;27;20041;-70
2022/03/14 05:04:06;;;;;;;4.47;2.75;;;9.30;99.90;;;;;;5135238;27;20097;-69
2022/03/14 05:06:32;;;;;;;4.80;3.38;;;9.30;99.90;;;;;;5135071;27;20050;-69
2022/03/14 05:08:58;;;;;;;3.90;2.97;;;9.20;99.90;;;;;;5117699;27;20042;-70
2022/03/14 05:11:25;;;;;;;4.05;3.08;;;9.20;99.90;;;;;;5134975;27;20047;-69
2022/03/14 05:13:51;;;;;;;4.60;3.13;;;9.30;99.90;;;;;;5153683;27;20042;-69
2022/03/14 05:16:17;;;;;;;5.43;3.50;;;9.20;99.90;;;;;;5134708;27;20050;-70
2022/03/14 05:18:43;;;;;;;4.78;3.25;;;9.20;99.90;;;;;;5134876;27;20042;-69
2022/03/14 05:21:09;;;;;;;4.25;2.88;;;9.20;99.90;;;;;;5134857;27;20091;-69
2022/03/14 05:23:34;;;;;;;3.85;3.00;;;9.20;99.90;;;;;;5135025;27;20083;-68
2022/03/14 05:26:00;;;;;;;4.50;3.33;;;9.30;99.90;;;;;;5134774;27;20073;-69
2022/03/14 05:28:26;;;;;;;4.03;2.97;;;9.20;99.90;;;;;;5135027;27;20073;-69
2022/03/14 05:30:52;;;;;;;4.65;3.42;;;9.30;99.90;;;;;;5155726;27;20072;-68
2022/03/14 05:33:18;;;;;;;4.88;3.42;;;9.10;99.90;;;;;;5139322;27;20056;-70
2022/03/14 05:35:44;;;;;;;4.60;3.28;;;9.10;99.90;;;;;;5121794;27;20043;-68
2022/03/14 05:38:10;;;;;;;4.63;3.20;;;9.10;99.90;;;;;;5139080;27;20069;-69
2022/03/14 05:40:35;;;;;;;4.32;2.97;;;9.10;99.90;;;;;;5138702;27;20121;-69
2022/03/14 05:43:07;;;;;;;5.88;3.28;;;9.10;99.90;;;;;;5138810;27;20073;-68
2022/03/14 05:45:33;;;;;;;4.20;2.88;;;9.10;99.90;;;;;;5138743;27;20046;-69
2022/03/14 05:47:59;;;;;;;4.72;3.55;;;9.10;99.90;;;;;;5138911;27;20117;-69
2022/03/14 05:50:25;;;;;;;5.07;3.47;;;9.20;99.90;;;;;;5138685;27;20121;-69
2022/03/14 05:52:54;;;;;;;4.80;3.22;;;9.20;99.90;;;;;;5157804;27;20374;-69
2022/03/14 05:55:20;;;;;;;6.15;3.70;;;9.10;99.90;;;;;;5138181;27;20085;-69
2022/03/14 05:57:46;;;;;;;4.93;3.58;;;9.30;99.90;;;;;;5138489;27;20074;-69
2022/03/14 06:00:13;;;;;;;5.38;3.90;;;9.10;99.90;;;;;;5138396;27;20039;-69
2022/03/14 06:02:45;;;;;;;5.38;4.03;;;9.10;99.90;;;;;;5138539;27;20060;-69
2022/03/14 06:05:10;;;;;;;4.22;3.20;;;9.20;99.90;;;;;;5138521;27;20085;-69
2022/03/14 06:07:36;;;;;;;6.35;4.03;;;9.70;99.90;;;;;;5121113;27;20507;-69
2022/03/14 06:10:02;;;;;;;6.05;4.15;;;9.10;99.90;;;;;;5121015;27;20578;-68
2022/03/14 06:12:31;;;;;;;6.28;3.65;;;9.10;99.90;;;;;;5138127;27;20074;-69
2022/03/14 06:14:58;;;;;;;6.07;4.38;;;9.10;99.90;;;;;;5137969;27;20059;-68
2022/03/14 06:17:24;;;;;;;5.63;3.55;;;9.10;99.90;;;;;;5137904;27;20101;-68
2022/03/14 06:19:51;;;;;;;6.05;4.03;;;9.00;99.90;;;;;;5121131;27;20041;-69
2022/03/14 06:22:21;;;;;;;5.18;3.90;;;9.00;99.90;;;;;;5138201;27;20038;-69
2022/03/14 06:24:48;;;;;;;6.07;4.07;;;9.00;99.90;;;;;;5137913;27;20131;-70
2022/03/14 06:27:15;;;;;;;5.95;3.97;;;8.90;99.90;;;;;;5120740;27;20054;-69
2022/03/14 06:29:41;;;;;;;6.22;4.07;;;9.00;99.90;;;;;;5138184;27;20038;-70
2022/03/14 06:32:07;;;;;;;5.28;4.18;;;8.90;99.90;;;;;;5137934;27;20497;-71
2022/03/14 06:34:33;;;;;;;5.93;4.25;;;8.90;99.90;;;;;;5137848;27;20050;-69
2022/03/14 06:36:59;;;;;;;7.00;5.18;;;8.90;99.90;;;;;;5120801;27;20418;-69
2022/03/14 06:39:24;;;;;;;5.45;4.38;;;8.90;99.90;;;;;;5137895;27;20175;-69
2022/03/14 06:41:50;;;;;;;7.32;4.65;;;8.90;99.90;;;;;;5137077;27;20439;-70
2022/03/14 06:44:17;;;;;;;8.10;4.70;;;9.20;99.90;;;;;;5137880;27;20099;-70
2022/03/14 06:46:43;;;;;;;7.00;4.80;;;9.00;99.90;;;;;;5137939;27;20523;-68
2022/03/14 06:49:13;;;;;;;5.82;4.43;;;8.80;99.90;;;;;;5120593;27;20047;-69
2022/03/14 06:51:42;;;;;;;5.78;4.32;;;8.80;99.90;;;;;;5137481;27;20066;-70
2022/03/14 06:54:09;;;;;;;5.90;4.20;;;8.80;99.90;;;;;;5104029;27;20073;-68
2022/03/14 06:56:38;;;;;;;6.70;4.70;;;8.70;99.90;;;;;;5120235;27;20042;-68
2022/03/14 06:59:04;;;;;;;5.63;4.07;;;8.70;99.90;;;;;;5137355;27;20114;-69
2022/03/14 07:01:30;;;;;;;6.15;4.53;;;9.00;99.90;;;;;;5103633;27;20087;-69
2022/03/14 07:03:56;;;;;;;7.75;5.00;;;8.80;99.90;;;;;;5120357;27;20065;-68
2022/03/14 07:06:22;;;;;;;6.20;4.35;;;8.70;99.90;;;;;;5137510;27;20042;-69
2022/03/14 07:08:48;;;;;;;7.63;5.38;;;8.80;99.90;;;;;;5137047;27;20102;-69
2022/03/14 07:11:13;;;;;;;7.25;5.63;;;8.80;99.90;;;;;;5137344;27;20390;-69
2022/03/14 07:13:39;;;;;;;5.95;5.15;;;8.80;99.90;;;;;;5137394;27;20401;-68
2022/03/14 07:16:05;;;;;;;6.60;5.50;;;8.70;99.90;;;;;;5136762;27;20050;-69
2022/03/14 07:18:31;;;;;;;7.60;4.70;;;8.70;99.90;;;;;;5119911;27;20066;-69
2022/03/14 07:20:57;;;;;;;6.35;5.40;;;8.70;99.90;;;;;;5136949;27;20043;-70
2022/03/14 07:23:23;;;;;;;8.93;5.38;;;9.30;99.90;;;;;;5137147;27;20042;-68
2022/03/14 07:25:51;;;;;;;7.80;5.18;;;8.70;99.90;;;;;;5136684;27;20042;-69
2022/03/14 07:28:18;;;;;;;7.10;5.93;;;9.50;99.90;;;;;;5136805;27;20046;-68
2022/03/14 07:30:45;;;;;;;6.47;5.25;;;8.80;99.90;;;;;;5155398;27;20121;-69
2022/03/14 07:33:11;;;;;;;6.80;5.20;;;8.70;99.90;;;;;;5136816;27;20085;-69
2022/03/14 07:35:37;;;;;;;8.60;5.30;;;8.80;99.90;;;;;;5136612;27;20074;-69
2022/03/14 07:38:03;;;;;;;7.40;5.75;;;8.80;99.90;;;;;;5119117;27;20106;-68
2022/03/14 07:40:29;;;;;;;8.95;5.22;;;8.80;99.90;;;;;;5136590;27;20052;-67
2022/03/14 07:42:59;;;;;;;9.45;5.82;;;8.80;99.90;;;;;;5136661;27;20035;-68
2022/03/14 07:45:26;;;;;;;10.30;5.80;;;8.80;99.90;;;;;;5136493;27;20043;-69
2022/03/14 07:47:53;;;;;;;11.05;6.68;;;8.80;99.90;;;;;;5136527;27;20038;-69
2022/03/14 07:50:19;;;;;;;7.43;6.45;;;8.80;99.90;;;;;;5119744;27;20039;-69
2022/03/14 07:52:47;;;;;;;10.15;6.25;;;8.70;99.90;;;;;;5136648;27;20050;-69
2022/03/14 07:55:13;;;;;;;9.15;6.32;;;8.80;99.90;;;;;;5135266;27;20062;-69
2022/03/14 07:57:40;;;;;;;9.38;6.50;;;8.80;99.90;;;;;;5136332;27;20122;-70
2022/03/14 08:00:12;;;;;;;8.52;5.68;;;8.80;99.90;;;;;;5154758;27;20042;-68
2022/03/14 08:02:38;;;;;;;11.02;7.18;;;8.80;99.90;;;;;;5136440;27;20481;-69
2022/03/14 08:05:05;;;;;;;9.82;6.97;;;8.80;99.90;;;;;;5136385;27;20046;-68
2022/03/14 08:07:31;;;;;;;9.48;7.18;;;8.80;99.90;;;;;;5135800;27;20082;-68
2022/03/14 08:09:57;;;;;;;7.95;6.43;;;9.00;99.90;;;;;;5136392;27;20088;-69
2022/03/14 08:12:23;;;;;;;8.98;6.53;;;8.90;99.90;;;;;;5135865;27;20086;-67
2022/03/14 08:14:51;;;;;;;10.30;7.15;;;9.00;99.90;;;;;;5084504;27;20447;-68
2022/03/14 08:17:18;;;;;;;9.10;7.10;;;9.30;99.90;;;;;;5135982;27;20463;-69
2022/03/14 08:19:44;;;;;;;8.93;6.75;;;9.00;99.90;;;;;;5154381;27;20046;-69
2022/03/14 08:22:10;;;;;;;9.70;7.10;;;9.00;99.90;;;;;;5136019;27;20034;-69
2022/03/14 08:24:36;;;;;;;11.63;7.55;;;9.00;99.90;;;;;;5154305;27;20045;-69
2022/03/14 08:27:02;;;;;;;9.80;7.65;;;9.00;99.90;;;;;;5135469;27;20504;-68
2022/03/14 08:29:28;;;;;;;10.68;8.00;;;9.10;99.90;;;;;;5135782;27;20050;-68
2022/03/14 08:31:57;;;;;;;11.75;8.13;;;9.20;99.90;;;;;;5135383;27;20050;-69
2022/03/14 08:34:22;;;;;;;9.07;7.72;;;9.10;99.90;;;;;;5135627;27;20041;-69
2022/03/14 08:36:48;;;;;;;8.23;6.88;;;9.10;99.90;;;;;;5135634;27;20031;-69
2022/03/14 08:39:14;;;;;;;10.55;7.78;;;9.20;99.90;;;;;;5135549;27;20034;-69
2022/03/14 08:41:40;;;;;;;11.68;7.10;;;9.10;99.90;;;;;;5135805;27;20083;-69
2022/03/14 08:44:09;;;;;;;9.93;7.43;;;9.00;99.90;;;;;;5135346;27;20121;-68
2022/03/14 08:46:35;;;;;;;8.48;7.47;;;9.10;99.90;;;;;;5135132;27;20125;-69
2022/03/14 08:49:02;;;;;;;10.85;7.90;;;9.10;99.90;;;;;;5118334;27;20064;-69
2022/03/14 08:51:28;;;;;;;11.07;8.43;;;9.70;99.90;;;;;;5153870;27;20031;-68
2022/03/14 08:53:54;;;;;;;10.23;8.35;;;9.10;99.90;;;;;;5135174;27;20049;-68
2022/03/14 08:56:20;;;;;;;10.95;8.13;;;9.40;99.90;;;;;;5135316;27;20042;-68
2022/03/14 08:58:46;;;;;;;13.02;8.57;;;9.20;99.90;;;;;;5135374;27;20385;-68
2022/03/14 09:01:12;;;;;;;9.77;7.82;;;9.20;99.90;;;;;;5117798;27;20095;-69
2022/03/14 09:03:38;;;;;;;11.13;7.88;;;9.20;99.90;;;;;;5134992;27;20070;-69
2022/03/14 09:06:04;;;;;;;10.57;8.45;;;9.20;99.90;;;;;;5117377;27;20038;-68
2022/03/14 09:08:31;;;;;;;12.40;7.32;;;9.60;99.90;;;;;;5153825;27;20106;-68
2022/03/14 09:11:00;;;;;;;10.52;8.35;;;9.30;99.90;;;;;;5153641;27;20046;-68
2022/03/14 09:13:26;;;;;;;13.18;9.55;;;9.30;99.90;;;;;;5134884;27;20035;-68
2022/03/14 09:15:53;;;;;;;12.43;9.27;;;9.30;99.90;;;;;;5153301;27;20074;-69
2022/03/14 09:18:20;;;;;;;11.20;8.55;;;9.40;99.90;;;;;;5135082;27;20134;-69
2022/03/14 09:20:49;;;;;;;13.57;10.05;;;9.40;99.90;;;;;;5135171;27;20082;-69
2022/03/14 09:23:20;;;;;;;13.50;9.00;;;9.20;99.90;;;;;;5134970;27;20061;-68
2022/03/14 09:25:47;;;;;;;11.32;8.85;;;9.40;99.90;;;;;;5134923;27;20054;-68
2022/03/14 09:28:13;;;;;;;9.88;7.55;;;9.40;99.90;;;;;;5153642;27;20126;-69
2022/03/14 09:30:39;;;;;;;10.45;8.77;;;9.50;99.90;;;;;;5135091;27;20490;-70
2022/03/14 09:33:05;;;;;;;11.80;9.85;;;9.40;99.90;;;;;;5118201;27;20054;-70
2022/03/14 09:35:31;;;;;;;11.60;8.93;;;9.50;99.90;;;;;;5117613;27;20061;-70
2022/03/14 09:37:58;;;;;;;12.75;9.43;;;9.50;99.90;;;;;;5117863;27;20062;-70
2022/03/14 09:40:24;;;;;;;12.57;9.80;;;9.50;99.90;;;;;;5134759;27;20105;-70
2022/03/14 09:42:54;;;;;;;12.15;8.45;;;9.50;99.90;;;;;;5134774;27;20038;-71
2022/03/14 09:45:20;;;;;;;12.82;10.18;;;9.60;99.90;;;;;;5117651;27;20083;-70
2022/03/14 09:47:48;;;;;;;10.43;8.65;;;9.50;99.90;;;;;;5117613;27;20046;-71
2022/03/14 09:50:32;;;;;;;13.32;10.35;;;9.60;99.90;;;;;;5134803;27;20047;-71
2022/03/14 09:53:01;;;;;;;14.30;10.25;;;9.60;99.90;;;;;;5134971;27;20068;-71
2022/03/14 09:55:27;;;;;;;11.10;9.35;;;10.00;99.90;;;;;;5134562;27;20380;-71
2022/03/14 09:57:55;;;;;;;13.90;11.25;;;9.60;99.90;;;;;;5134965;27;20615;-71
2022/03/14 10:00:21;;;;;;;11.48;9.32;;;9.60;99.90;;;;;;5117698;27;20370;-70
2022/03/14 10:02:47;;;;;;;15.18;11.20;;;9.50;99.90;;;;;;5134569;27;20035;-71
2022/03/14 10:05:14;;;;;;;15.55;12.10;;;9.50;99.90;;;;;;5134491;27;20046;-71
2022/03/14 10:07:43;;;;;;;17.08;12.18;;;9.50;99.90;;;;;;5153294;27;20050;-71
2022/03/14 10:10:09;;;;;;;17.13;12.60;;;9.50;99.90;;;;;;5134771;27;20080;-71
2022/03/14 10:12:35;;;;;;;18.17;12.50;;;9.50;99.90;;;;;;5134445;27;20049;-71
2022/03/14 10:15:05;;;;;;;18.83;13.82;;;9.40;99.90;;;;;;5134269;27;20039;-70
2022/03/14 10:17:32;;;;;;;19.23;14.00;;;9.30;99.90;;;;;;5135980;27;20070;-70
2022/03/14 10:20:03;;;;;;;21.20;15.02;;;9.30;99.90;;;;;;5138561;27;20401;-71
2022/03/14 10:22:37;;;;;;;21.92;15.00;;;9.30;99.90;;;;;;5138560;27;20054;-71
2022/03/14 10:25:11;;;;;;;18.38;13.50;;;9.20;99.90;;;;;;5156810;27;20035;-71
2022/03/14 10:27:39;;;;;;;19.80;13.43;;;9.20;99.90;;;;;;5156616;27;20121;-71
2022/03/14 10:30:20;;;;;;;18.90;13.20;;;9.40;99.90;;;;;;5138098;27;20049;-71
2022/03/14 10:32:47;;;;;;;15.27;10.30;;;9.20;99.90;;;;;;5138285;27;20049;-71
2022/03/14 10:35:16;;;;;;;17.17;10.10;;;9.10;99.90;;;;;;5121122;27;20043;-70
2022/03/14 10:38:00;;;;;;;18.38;9.40;;;9.10;99.90;;;;;;5137961;27;20111;-70
2022/03/14 10:40:34;;;;;;;13.38;8.20;;;9.10;99.90;;;;;;5138169;27;20423;-71
2022/03/14 10:43:01;;;;;;;15.15;8.07;;;9.10;99.90;;;;;;5137742;27;20127;-71
2022/03/14 10:45:30;;;;;;;13.40;7.22;;;9.20;99.90;;;;;;5137944;27;20568;-71
2022/03/14 10:47:57;;;;;;;16.35;8.30;;;9.10;99.90;;;;;;5156299;27;20034;-70
2022/03/14 10:50:30;;;;;;;14.48;8.27;;;9.10;99.90;;;;;;5137946;27;20037;-70
2022/03/14 10:53:06;;;;;;;18.05;8.90;;;9.10;99.90;;;;;;5137593;27;20039;-71
2022/03/14 10:55:38;;;;;;;18.23;10.50;;;9.10;99.90;;;;;;5120526;27;20043;-72
2022/03/14 10:58:13;;;;;;;19.33;10.07;;;9.10;99.90;;;;;;5137763;27;20043;-71
2022/03/14 11:00:50;;;;;;;17.75;9.85;;;9.20;99.90;;;;;;5137504;27;20493;-71
2022/03/14 11:03:25;;;;;;;20.35;10.15;;;9.20;99.90;;;;;;5137499;27;20450;-71
2022/03/14 11:05:52;;;;;;;23.73;11.13;;;9.30;99.90;;;;;;5120378;27;20443;-71
2022/03/14 11:08:36;;;;;;;19.90;11.63;;;9.40;99.90;;;;;;5156023;27;20034;-71
2022/03/14 11:11:08;;;;;;;20.45;10.98;;;10.20;99.90;;;;;;5137241;27;20039;-71
2022/03/14 11:13:43;;;;;;;21.73;12.15;;;9.60;99.90;;;;;;5120323;27;20038;-71
2022/03/14 11:16:29;;;;;;;21.83;11.75;;;9.70;99.90;;;;;;5136848;27;20086;-71
2022/03/14 11:18:56;;;;;;;19.17;10.88;;;9.70;99.90;;;;;;5137488;27;20049;-71
2022/03/14 11:21:25;;;;;;;17.70;10.65;;;9.80;99.90;;;;;;5137325;27;20047;-70
2022/03/14 11:23:53;;;;;;;22.52;12.52;;;9.80;99.90;;;;;;5137248;27;20129;-71
2022/03/14 11:26:21;;;;;;;21.75;11.95;;;9.90;99.90;;;;;;5136893;27;20043;-71
2022/03/14 11:28:49;;;;;;;18.23;10.38;;;9.90;99.90;;;;;;5119785;27;20170;-70
2022/03/14 11:31:19;;;;;;;23.05;11.27;;;9.90;99.90;;;;;;5136997;27;20039;-70
2022/03/14 11:33:46;;;;;;;18.70;11.55;;;10.00;99.90;;;;;;5136847;27;20386;-70
2022/03/14 11:36:12;;;;;;;22.70;12.27;;;10.00;99.90;;;;;;5119747;27;20107;-71
2022/03/14 11:38:38;;;;;;;19.05;11.13;;;9.90;99.90;;;;;;5119608;27;20126;-71
2022/03/14 11:41:04;;;;;;;22.85;11.23;;;9.90;99.90;;;;;;5136771;27;20034;-71
2022/03/14 11:43:30;;;;;;;18.85;10.20;;;9.90;99.90;;;;;;5136541;27;20046;-71
2022/03/14 11:46:00;;;;;;;20.75;11.85;;;9.90;99.90;;;;;;5119664;27;20046;-71
2022/03/14 11:48:36;;;;;;;18.55;10.57;;;9.90;99.90;;;;;;5136477;27;20070;-71
2022/03/14 11:51:06;;;;;;;19.38;10.18;;;9.90;99.90;;;;;;5136484;27;20143;-71
2022/03/14 11:53:36;;;;;;;21.38;10.85;;;9.90;99.90;;;;;;5136107;27;20049;-71
2022/03/14 11:56:07;;;;;;;20.05;12.05;;;9.80;99.90;;;;;;5154864;27;20066;-71
2022/03/14 11:58:37;;;;;;;21.90;12.15;;;9.80;99.90;;;;;;5136542;27;20477;-71
2022/03/14 12:01:18;;;;;;;21.75;10.48;;;9.80;99.90;;;;;;5136158;27;20103;-71
2022/03/14 12:03:51;;;;;;;17.83;10.45;;;10.00;99.90;;;;;;5136008;27;20049;-71
2022/03/14 12:06:17;;;;;;;21.50;10.45;;;9.80;99.90;;;;;;5136183;27;20046;-72
2022/03/14 12:08:46;;;;;;;22.08;11.45;;;9.80;99.90;;;;;;5136061;27;20071;-72
2022/03/14 12:11:34;;;;;;;18.63;10.15;;;10.30;99.90;;;;;;5135964;27;20045;-72
2022/03/14 12:14:00;;;;;;;16.40;9.45;;;9.80;99.90;;;;;;5135820;27;20081;-72
2022/03/14 12:16:39;;;;;;;16.95;9.60;;;9.80;99.90;;;;;;5135540;27;20092;-71
2022/03/14 12:19:38;;;;;;;17.52;9.27;;;9.80;99.90;;;;;;5136032;27;20050;-72
2022/03/14 12:22:06;;;;;;;18.85;11.43;;;9.90;99.90;;;;;;5135466;27;20038;-71
2022/03/14 12:24:37;;;;;;;14.48;9.82;;;9.90;99.90;;;;;;5135751;27;20049;-71
2022/03/14 12:27:34;;;;;;;20.42;9.80;;;9.90;99.90;;;;;;5135746;27;20070;-72
2022/03/14 12:30:06;;;;;;;22.33;11.48;;;10.00;99.90;;;;;;5115079;27;20131;-72
2022/03/14 12:32:40;;;;;;;20.70;10.23;;;10.00;99.90;;;;;;5135547;27;20052;-71
2022/03/14 12:35:12;;;;;;;21.35;10.68;;;10.00;99.90;;;;;;5135272;27;20042;-71
2022/03/14 12:37:52;;;;;;;20.83;13.13;;;10.20;99.90;;;;;;5135368;27;20039;-71
2022/03/14 12:40:21;;;;;;;26.25;11.75;;;9.90;99.90;;;;;;5135108;27;20405;-72
2022/03/14 12:42:52;;;;;;;21.83;14.02;;;9.90;99.90;;;;;;5135247;27;20046;-72
2022/03/14 12:45:27;;;;;;;;;;;10.20;99.90;;;;;;5135896;27;20126;-72
2022/03/14 12:47:59;;;;;;;30.90;15.50;;;9.90;99.90;;;;;;5135195;27;19975;-72
2022/03/14 12:50:43;;;;;;;;;;;10.00;99.90;;;;;;5135795;27;20043;-72
2022/03/14 12:53:14;;;;;;;23.85;15.85;;;10.10;99.90;;;;;;5118391;27;19987;-72